weather.gov     
National Weather Service

Terminal Aerodrome Forecast
NWS Homepage
This page is being discontinued on March 12, 2014.
The same data is available at this site. Please update your bookmarks.
Thank you, and we apologize for the inconvenience.
Please send an email to SR-SRH.Webmaster@noaa.gov with any concerns.


Current Version
Previous Version:    01  02  03  04  05  06  07  08  09  10  11  12  13  14  15  16  17  18  19  20  21  22  23  24  25  26  27  28  29  30  
   31  32  33  34  35  36  37  38  39  40  41  42  43  44  45  46  47  
[Printable]
930
FTUS41 KRNK 210540
TAFDAN
TAF
KDAN 210540Z 2106/2206 08003KT P6SM SCT100 BKN250
     FM210900 04003KT 3SM BR SCT004
      TEMPO 2109/2111 1/2SM FG VV003
     FM211300 VRB03KT P6SM SCT250
     FM211500 32006KT P6SM SCT050
     FM220000 29005KT P6SM VCTS BKN060CB=




930
FTUS41 KRNK 210540
TAFDAN
TAF
KDAN 210540Z 2106/2206 08003KT P6SM SCT100 BKN250
     FM210900 04003KT 3SM BR SCT004
      TEMPO 2109/2111 1/2SM FG VV003
     FM211300 VRB03KT P6SM SCT250
     FM211500 32006KT P6SM SCT050
     FM220000 29005KT P6SM VCTS BKN060CB=


U.S. Dept. of Commerce
NOAA National Weather Service
1325 East West Highway
Silver Spring, MD 20910
E-mail: w-nws.webmaster@noaa.gov
Page last modified: May 16, 2007
NATIONAL WEATHER SERVICE: for Safety, for Work, for Fun - FOR LIFE